Time;durP1;ratioP1;P1;durP2;ratioP2;P2;SDS_P1;SDS_P2;PMS_P1;PMS_P2;Temp;Humidity;BMP_temperature;BMP_pressure;BME280_temperature;BME280_humidity;BME280_pressure;Samples;Min_cycle;Max_cycle;Signal;HPM_P1;HPM_P2
2021/03/03 00:01:21;;;;;;;51.47;30.48;;;4.50;99.90;;;;;;5040777;28;20215;-78
2021/03/03 00:03:48;;;;;;;48.25;29.67;;;4.40;99.90;;;;;;5042969;28;20224;-79
2021/03/03 00:06:14;;;;;;;56.55;30.48;;;4.40;99.90;;;;;;5048723;28;20208;-78
2021/03/03 00:08:40;;;;;;;46.05;31.00;;;4.30;99.90;;;;;;5047780;28;20223;-79
2021/03/03 00:11:06;;;;;;;52.22;32.22;;;4.40;99.90;;;;;;5040297;28;20203;-79
2021/03/03 00:13:32;;;;;;;49.47;30.30;;;4.30;99.90;;;;;;5039820;28;20227;-78
2021/03/03 00:15:58;;;;;;;60.15;31.85;;;4.30;99.90;;;;;;5039642;28;20224;-79
2021/03/03 00:18:25;;;;;;;58.42;32.15;;;4.50;99.90;;;;;;5038749;28;20211;-79
2021/03/03 00:20:51;;;;;;;52.60;30.38;;;4.30;99.90;;;;;;5038832;28;20579;-80
2021/03/03 00:23:17;;;;;;;54.17;31.88;;;4.20;99.90;;;;;;5039052;28;20231;-79
2021/03/03 00:25:43;;;;;;;47.33;30.40;;;4.10;99.90;;;;;;5040254;28;20214;-80
2021/03/03 00:28:10;;;;;;;47.47;29.23;;;4.20;99.90;;;;;;5038423;28;20235;-79
2021/03/03 00:30:36;;;;;;;53.33;29.75;;;4.20;99.90;;;;;;5039204;28;20203;-79
2021/03/03 00:33:02;;;;;;;49.85;28.65;;;4.20;99.90;;;;;;5041459;28;20231;-79
2021/03/03 00:35:29;;;;;;;46.42;26.48;;;4.10;99.90;;;;;;5050441;28;20229;-78
2021/03/03 00:37:55;;;;;;;50.47;29.33;;;4.10;99.90;;;;;;5046030;28;20216;-80
2021/03/03 00:40:21;;;;;;;45.50;27.90;;;4.10;99.90;;;;;;5042457;28;20690;-80
2021/03/03 00:42:47;;;;;;;42.83;28.95;;;4.10;99.90;;;;;;5045145;28;20211;-78
2021/03/03 00:45:14;;;;;;;47.00;27.75;;;4.00;99.90;;;;;;5051164;28;20204;-79
2021/03/03 00:47:40;;;;;;;41.92;27.38;;;4.00;99.90;;;;;;5049104;28;20210;-79
2021/03/03 00:50:08;;;;;;;50.85;25.83;;;3.90;99.90;;;;;;5050540;28;20203;-79
2021/03/03 00:52:34;;;;;;;41.25;27.00;;;3.90;99.90;;;;;;5051353;28;20227;-79
2021/03/03 00:55:01;;;;;;;49.78;26.85;;;4.00;99.90;;;;;;5050943;28;20218;-78
2021/03/03 00:57:27;;;;;;;46.17;26.67;;;3.90;99.90;;;;;;5051659;28;20242;-79
2021/03/03 00:59:53;;;;;;;40.00;26.60;;;4.00;99.90;;;;;;5051475;28;20215;-80
2021/03/03 01:02:19;;;;;;;43.70;25.98;;;4.10;99.90;;;;;;5049737;28;20232;-81
2021/03/03 01:04:45;;;;;;;53.08;28.48;;;4.20;99.90;;;;;;5048779;28;20211;-79
2021/03/03 01:07:12;;;;;;;46.50;27.50;;;4.00;99.90;;;;;;5055038;28;20204;-79
2021/03/03 01:09:39;;;;;;;41.67;28.35;;;3.90;99.90;;;;;;5054345;28;20211;-79
2021/03/03 01:12:06;;;;;;;47.78;28.17;;;3.80;99.90;;;;;;5041632;28;20227;-79
2021/03/03 01:14:32;;;;;;;48.58;27.52;;;3.70;99.90;;;;;;5039845;28;20199;-80
2021/03/03 01:16:58;;;;;;;48.45;30.38;;;3.60;99.90;;;;;;5038419;28;20691;-79
2021/03/03 01:19:24;;;;;;;46.28;28.02;;;3.50;99.90;;;;;;5037720;28;20204;-79
2021/03/03 01:21:50;;;;;;;52.63;28.23;;;3.50;99.90;;;;;;5037688;28;20231;-79
2021/03/03 01:24:16;;;;;;;53.90;28.70;;;3.50;99.90;;;;;;5037483;28;20195;-80
2021/03/03 01:26:43;;;;;;;46.63;27.67;;;3.50;99.90;;;;;;5037641;28;20204;-80
2021/03/03 01:29:09;;;;;;;47.20;29.38;;;3.60;99.90;;;;;;5038694;28;20208;-80
2021/03/03 01:31:35;;;;;;;46.42;29.48;;;3.70;99.90;;;;;;5038006;28;20266;-80
2021/03/03 01:34:02;;;;;;;50.50;27.48;;;3.50;99.90;;;;;;5038546;28;20210;-80
2021/03/03 01:36:28;;;;;;;48.78;29.70;;;3.50;99.90;;;;;;5046693;28;20215;-77
2021/03/03 01:38:54;;;;;;;50.25;32.25;;;3.50;99.90;;;;;;5055896;28;20234;-78
2021/03/03 01:41:23;;;;;;;53.63;31.25;;;3.50;99.90;;;;;;5055756;28;20207;-79
2021/03/03 01:43:50;;;;;;;44.83;29.58;;;3.50;99.90;;;;;;5043715;28;20250;-79
2021/03/03 01:46:16;;;;;;;52.30;29.70;;;3.40;99.90;;;;;;5038149;28;20575;-79
2021/03/03 01:48:42;;;;;;;43.78;28.25;;;3.40;99.90;;;;;;5038014;28;20696;-80
2021/03/03 01:51:09;;;;;;;45.63;27.85;;;3.30;99.90;;;;;;5038247;28;20200;-80
2021/03/03 01:53:35;;;;;;;53.65;30.38;;;3.30;99.90;;;;;;5037512;28;20334;-80
2021/03/03 01:56:02;;;;;;;46.40;30.42;;;3.30;99.90;;;;;;5036910;28;20325;-80
2021/03/03 01:58:28;;;;;;;51.38;27.40;;;3.20;99.90;;;;;;5050238;28;20207;-79
2021/03/03 02:00:55;;;;;;;51.80;32.05;;;3.20;99.90;;;;;;5049132;28;20685;-79
2021/03/03 02:03:21;;;;;;;39.63;26.25;;;3.20;99.90;;;;;;5044300;28;20235;-79
2021/03/03 02:05:52;;;;;;;47.60;28.40;;;3.10;99.90;;;;;;5042363;28;20701;-81
2021/03/03 02:08:23;;;;;;;55.72;28.73;;;3.00;99.90;;;;;;5036905;28;20753;-79
2021/03/03 02:10:56;;;;;;;52.38;30.05;;;3.00;99.90;;;;;;5037370;28;20192;-79
2021/03/03 02:13:28;;;;;;;52.25;28.58;;;3.00;99.90;;;;;;5043753;28;20223;-79
2021/03/03 02:15:58;;;;;;;45.97;28.15;;;3.00;99.90;;;;;;5049635;28;20183;-80
2021/03/03 02:18:26;;;;;;;50.05;28.33;;;2.90;99.90;;;;;;5047954;28;20188;-79
2021/03/03 02:20:56;;;;;;;46.90;27.05;;;2.90;99.90;;;;;;5048484;28;20250;-80
2021/03/03 02:23:31;;;;;;;43.20;27.00;;;2.90;99.90;;;;;;5043696;28;20227;-80
2021/03/03 02:25:59;;;;;;;45.00;26.50;;;2.90;99.90;;;;;;5041037;28;20199;-80
2021/03/03 02:28:25;;;;;;;55.83;28.88;;;3.00;99.90;;;;;;5037787;28;20258;-79
2021/03/03 02:30:52;;;;;;;42.47;26.40;;;3.00;99.90;;;;;;5037301;28;20227;-80
2021/03/03 02:33:21;;;;;;;37.70;25.75;;;3.00;99.90;;;;;;5037023;28;20702;-79
2021/03/03 02:35:49;;;;;;;44.17;26.58;;;3.00;99.90;;;;;;5036650;28;20210;-80
2021/03/03 02:38:16;;;;;;;42.08;25.63;;;2.90;99.90;;;;;;5037492;28;20210;-80
2021/03/03 02:40:43;;;;;;;47.20;26.42;;;3.00;99.90;;;;;;5036970;28;20232;-80
2021/03/03 02:43:15;;;;;;;42.22;25.40;;;2.90;99.90;;;;;;5035704;28;20219;-79
2021/03/03 02:45:42;;;;;;;41.78;26.00;;;3.00;99.90;;;;;;5035730;28;20207;-79
2021/03/03 02:48:10;;;;;;;48.08;26.13;;;3.10;99.90;;;;;;5036829;28;20261;-79
2021/03/03 02:50:37;;;;;;;37.80;24.50;;;3.10;99.90;;;;;;5035370;28;20204;-78
2021/03/03 02:53:03;;;;;;;43.25;25.50;;;3.10;99.90;;;;;;5035601;28;20227;-79
2021/03/03 02:55:30;;;;;;;44.03;25.45;;;3.20;99.90;;;;;;5035497;28;20576;-78
2021/03/03 02:57:58;;;;;;;44.42;25.27;;;3.00;99.90;;;;;;5036073;28;20326;-79
2021/03/03 03:00:28;;;;;;;40.35;23.20;;;3.00;99.90;;;;;;5036318;28;20694;-80
2021/03/03 03:03:00;;;;;;;42.28;24.63;;;3.10;99.90;;;;;;5036024;28;20223;-80
2021/03/03 03:05:28;;;;;;;40.60;25.10;;;3.10;99.90;;;;;;5037246;28;20654;-79
2021/03/03 03:07:58;;;;;;;48.70;25.52;;;3.10;99.90;;;;;;5050279;28;20194;-78
2021/03/03 03:10:25;;;;;;;39.38;22.92;;;3.10;99.90;;;;;;5057180;28;20188;-78
2021/03/03 03:12:53;;;;;;;37.05;24.40;;;3.10;99.90;;;;;;5048985;28;20224;-78
2021/03/03 03:15:23;;;;;;;40.92;23.40;;;3.00;99.90;;;;;;5044120;28;20204;-79
2021/03/03 03:17:58;;;;;;;34.72;22.17;;;3.00;99.90;;;;;;5038611;28;20227;-79
2021/03/03 03:20:25;;;;;;;43.22;23.08;;;3.00;99.90;;;;;;5037690;28;20665;-79
2021/03/03 03:22:53;;;;;;;43.40;24.50;;;2.90;99.90;;;;;;5058664;22;20291;-82
2021/03/03 03:25:19;;;;;;;41.92;23.73;;;3.20;99.90;;;;;;5035496;28;20238;-80
2021/03/03 03:27:48;;;;;;;44.63;24.35;;;2.90;99.90;;;;;;5035148;28;20200;-80
2021/03/03 03:30:15;;;;;;;40.03;22.58;;;2.80;99.90;;;;;;5038136;28;20239;-79
2021/03/03 03:32:42;;;;;;;49.40;23.23;;;2.80;99.90;;;;;;5037783;28;20227;-81
2021/03/03 03:35:11;;;;;;;43.17;24.55;;;2.80;99.90;;;;;;5039370;28;20207;-81
2021/03/03 03:37:39;;;;;;;37.78;24.33;;;2.80;99.90;;;;;;5039043;28;20276;-80
2021/03/03 03:40:07;;;;;;;36.03;21.73;;;2.80;99.90;;;;;;5038935;28;20242;-80
2021/03/03 03:42:35;;;;;;;45.50;23.25;;;2.70;99.90;;;;;;5038190;28;20231;-81
2021/03/03 03:45:03;;;;;;;39.20;23.33;;;2.70;99.90;;;;;;5038601;28;20208;-81
2021/03/03 03:47:30;;;;;;;45.63;25.65;;;2.70;99.90;;;;;;5038696;28;20203;-81
2021/03/03 03:50:01;;;;;;;36.55;22.55;;;2.70;99.90;;;;;;5038734;28;20576;-81
2021/03/03 03:52:28;;;;;;;41.28;24.08;;;2.70;99.90;;;;;;5041500;28;20223;-80
2021/03/03 03:54:55;;;;;;;38.20;22.73;;;2.70;99.90;;;;;;5042718;28;20210;-81
2021/03/03 03:57:22;;;;;;;46.72;25.05;;;2.60;99.90;;;;;;5044080;28;20235;-79
2021/03/03 03:59:49;;;;;;;37.90;23.33;;;2.40;99.90;;;;;;5046189;28;20258;-79
2021/03/03 04:02:16;;;;;;;47.80;24.58;;;2.30;99.90;;;;;;5049994;28;20223;-79
2021/03/03 04:04:43;;;;;;;43.00;24.50;;;2.30;99.90;;;;;;5047236;28;20218;-80
2021/03/03 04:07:09;;;;;;;45.13;25.67;;;2.20;99.90;;;;;;5041049;28;20922;-83
2021/03/03 04:09:36;;;;;;;45.15;25.20;;;2.40;99.90;;;;;;5041408;28;20203;-80
2021/03/03 04:12:03;;;;;;;39.63;24.27;;;2.50;99.90;;;;;;5041739;28;20200;-80
2021/03/03 04:14:29;;;;;;;45.38;26.17;;;2.40;99.90;;;;;;5042129;28;20211;-79
2021/03/03 04:16:55;;;;;;;45.08;28.98;;;2.50;99.90;;;;;;5043984;28;20219;-81
2021/03/03 04:19:21;;;;;;;52.97;28.85;;;2.40;99.90;;;;;;5048981;28;20203;-79
2021/03/03 04:21:48;;;;;;;45.67;27.92;;;2.50;99.90;;;;;;5048630;28;20200;-80
2021/03/03 04:24:14;;;;;;;43.42;27.95;;;2.50;99.90;;;;;;5047317;28;20270;-80
2021/03/03 04:26:41;;;;;;;44.60;26.45;;;2.50;99.90;;;;;;5048035;28;20442;-79
2021/03/03 04:29:07;;;;;;;53.45;30.23;;;2.50;99.90;;;;;;5046213;28;20234;-81
2021/03/03 04:31:33;;;;;;;38.28;23.90;;;2.40;99.90;;;;;;5045702;28;20650;-81
2021/03/03 04:33:59;;;;;;;39.78;24.65;;;2.40;99.90;;;;;;5039487;28;20709;-81
2021/03/03 04:36:25;;;;;;;39.47;21.92;;;2.40;99.90;;;;;;5038795;28;20226;-81
2021/03/03 04:38:51;;;;;;;40.85;24.30;;;2.20;99.90;;;;;;5038897;28;20441;-82
2021/03/03 04:41:17;;;;;;;43.30;23.45;;;2.30;99.90;;;;;;5037789;28;20266;-83
2021/03/03 04:43:44;;;;;;;44.80;26.50;;;2.20;99.90;;;;;;5038008;28;20234;-82
2021/03/03 04:46:10;;;;;;;35.40;21.10;;;2.30;99.90;;;;;;5039522;28;20203;-82
2021/03/03 04:48:37;;;;;;;39.75;24.63;;;2.10;99.90;;;;;;5038297;28;20203;-82
2021/03/03 04:51:03;;;;;;;50.35;24.20;;;2.10;99.90;;;;;;5039536;28;20207;-81
2021/03/03 04:53:29;;;;;;;40.05;21.48;;;2.10;99.90;;;;;;5037893;28;20319;-80
2021/03/03 04:55:55;;;;;;;37.63;22.27;;;2.10;99.90;;;;;;5037092;28;20203;-80
2021/03/03 04:58:21;;;;;;;39.90;22.55;;;2.10;99.90;;;;;;5036862;28;20224;-81
2021/03/03 05:00:48;;;;;;;34.95;21.20;;;2.10;99.90;;;;;;5037119;28;20249;-82
2021/03/03 05:03:14;;;;;;;36.17;21.70;;;2.10;99.90;;;;;;5036901;28;20503;-82
2021/03/03 05:05:40;;;;;;;45.75;25.67;;;1.80;99.90;;;;;;5035868;28;20801;-82
2021/03/03 05:08:06;;;;;;;38.97;23.45;;;1.80;99.90;;;;;;5036784;28;20227;-82
2021/03/03 05:10:32;;;;;;;44.42;21.67;;;1.90;99.90;;;;;;5036609;28;20204;-81
2021/03/03 05:12:58;;;;;;;36.85;20.60;;;1.80;99.90;;;;;;5037049;28;20231;-82
2021/03/03 05:15:25;;;;;;;36.60;22.50;;;1.80;99.90;;;;;;5037066;28;20314;-81
2021/03/03 05:17:52;;;;;;;43.00;24.00;;;1.80;99.90;;;;;;5036843;28;20216;-81
2021/03/03 05:20:18;;;;;;;36.50;22.17;;;1.80;99.90;;;;;;5037011;28;20207;-82
2021/03/03 05:22:44;;;;;;;40.55;23.60;;;1.80;99.90;;;;;;5036625;28;20445;-82
2021/03/03 05:25:11;;;;;;;42.58;24.10;;;1.80;99.90;;;;;;5036855;28;20441;-81
2021/03/03 05:27:37;;;;;;;37.30;23.70;;;1.90;99.90;;;;;;5037634;28;20563;-81
2021/03/03 05:30:05;;;;;;;47.03;23.20;;;1.80;99.90;;;;;;5036324;28;20208;-82
2021/03/03 05:32:32;;;;;;;39.53;22.77;;;1.60;99.90;;;;;;5037822;28;20532;-82
2021/03/03 05:34:58;;;;;;;39.55;23.60;;;1.70;99.90;;;;;;5038940;28;20441;-82
2021/03/03 05:37:24;;;;;;;34.20;22.80;;;1.70;99.90;;;;;;5035418;28;20254;-79
2021/03/03 05:39:50;;;;;;;34.70;23.27;;;1.70;99.90;;;;;;5036623;28;20227;-83
2021/03/03 05:42:17;;;;;;;35.42;22.75;;;1.70;99.90;;;;;;5036039;28;20234;-81
2021/03/03 05:44:45;;;;;;;38.45;23.90;;;1.80;99.90;;;;;;5042748;28;20203;-80
2021/03/03 05:47:14;;;;;;;39.35;23.08;;;1.90;99.90;;;;;;5038681;28;20206;-81
2021/03/03 05:49:44;;;;;;;36.08;21.67;;;2.40;99.90;;;;;;5036972;28;20238;-81
2021/03/03 05:52:14;;;;;;;41.03;23.05;;;1.50;99.90;;;;;;5036824;28;20200;-81
2021/03/03 05:54:41;;;;;;;38.42;20.77;;;1.70;99.90;;;;;;5044088;28;20647;-79
2021/03/03 05:57:07;;;;;;;41.38;23.67;;;1.60;99.90;;;;;;5049059;28;20219;-79
2021/03/03 05:59:35;;;;;;;44.67;23.95;;;1.60;99.90;;;;;;5048629;28;20208;-79
2021/03/03 06:02:01;;;;;;;43.53;23.92;;;1.70;99.90;;;;;;5044212;28;20207;-80
2021/03/03 06:04:27;;;;;;;39.78;24.13;;;1.80;99.90;;;;;;5037719;28;20246;-80
2021/03/03 06:06:55;;;;;;;40.17;22.52;;;1.90;99.90;;;;;;5036330;28;20235;-79
2021/03/03 06:09:23;;;;;;;45.08;24.05;;;1.80;99.90;;;;;;5037052;28;20208;-79
2021/03/03 06:11:49;;;;;;;44.38;26.80;;;2.00;99.90;;;;;;5037248;28;20231;-80
2021/03/03 06:14:15;;;;;;;48.97;26.80;;;2.00;99.90;;;;;;5035236;28;20292;-79
2021/03/03 06:16:42;;;;;;;41.30;24.67;;;2.00;99.90;;;;;;5036203;28;20230;-79
2021/03/03 06:19:08;;;;;;;42.75;22.83;;;2.00;99.90;;;;;;5036320;28;20242;-79
2021/03/03 06:21:34;;;;;;;43.55;24.15;;;2.00;99.90;;;;;;5035825;28;20238;-81
2021/03/03 06:24:03;;;;;;;41.67;23.95;;;2.00;99.90;;;;;;5036232;28;20236;-79
2021/03/03 06:26:30;;;;;;;45.15;25.23;;;2.00;99.90;;;;;;5036303;28;20203;-79
2021/03/03 06:28:57;;;;;;;42.20;23.83;;;2.00;99.90;;;;;;5036248;28;20210;-79
2021/03/03 06:31:26;;;;;;;43.90;22.70;;;2.10;99.90;;;;;;5035926;28;20203;-81
2021/03/03 06:33:53;;;;;;;36.58;23.92;;;2.20;99.90;;;;;;5035904;28;20294;-81
2021/03/03 06:36:21;;;;;;;43.08;24.27;;;2.10;99.90;;;;;;5035608;28;20239;-81
2021/03/03 06:38:47;;;;;;;40.83;24.75;;;2.00;99.90;;;;;;5035909;28;20200;-80
2021/03/03 06:41:13;;;;;;;40.03;23.35;;;2.10;99.90;;;;;;5035488;28;20678;-81
2021/03/03 06:43:40;;;;;;;45.67;24.33;;;2.20;99.90;;;;;;5036176;28;20211;-80
2021/03/03 06:46:16;;;;;;;45.35;24.27;;;2.20;99.90;;;;;;5038802;28;20211;-81
2021/03/03 06:48:44;;;;;;;43.05;26.55;;;2.20;99.90;;;;;;5038184;28;20188;-81
2021/03/03 06:51:24;;;;;;;44.30;25.40;;;2.20;99.90;;;;;;5038740;28;20271;-81
2021/03/03 06:53:50;;;;;;;44.40;25.48;;;2.20;99.90;;;;;;5040312;28;20234;-81
2021/03/03 06:56:36;;;;;;;47.53;27.08;;;2.20;99.90;;;;;;5038236;28;20230;-81
2021/03/03 06:59:11;;;;;;;50.53;28.90;;;2.20;99.90;;;;;;5037687;28;20196;-81
2021/03/03 07:01:37;;;;;;;54.33;27.60;;;2.20;99.90;;;;;;5037485;28;20203;-81
2021/03/03 07:04:04;;;;;;;54.70;28.20;;;2.30;99.90;;;;;;5044250;28;20230;-81
2021/03/03 07:06:32;;;;;;;44.88;27.63;;;2.40;99.90;;;;;;5041284;28;20211;-81
2021/03/03 07:08:59;;;;;;;48.30;27.30;;;2.50;99.90;;;;;;5039075;28;20278;-81
2021/03/03 07:11:27;;;;;;;52.28;26.45;;;2.30;99.90;;;;;;5039890;28;20204;-81
2021/03/03 07:13:53;;;;;;;49.83;28.23;;;2.30;99.90;;;;;;5041446;28;20276;-80
2021/03/03 07:16:20;;;;;;;59.05;28.48;;;2.40;99.90;;;;;;5042427;28;20204;-82
2021/03/03 07:18:46;;;;;;;43.25;27.00;;;2.40;99.90;;;;;;5038878;28;20207;-82
2021/03/03 07:21:12;;;;;;;50.17;28.70;;;2.40;99.90;;;;;;5040297;28;20211;-81
2021/03/03 07:23:48;;;;;;;46.70;28.52;;;2.50;99.90;;;;;;5039536;28;20232;-79
2021/03/03 07:26:15;;;;;;;44.97;25.75;;;2.70;99.90;;;;;;5039628;28;20219;-79
2021/03/03 07:28:42;;;;;;;48.38;27.90;;;2.70;99.90;;;;;;5039588;28;20199;-80
2021/03/03 07:31:11;;;;;;;46.70;28.75;;;2.80;99.90;;;;;;5038603;28;20219;-79
2021/03/03 07:33:38;;;;;;;52.15;28.58;;;2.90;99.90;;;;;;5038517;28;20231;-81
2021/03/03 07:36:06;;;;;;;42.33;25.95;;;3.00;99.90;;;;;;5038732;28;20682;-80
2021/03/03 07:38:36;;;;;;;48.55;27.45;;;3.00;99.90;;;;;;5038545;28;20231;-80
2021/03/03 07:41:07;;;;;;;48.67;27.25;;;3.10;99.90;;;;;;5038523;28;20261;-80
2021/03/03 07:43:34;;;;;;;45.75;27.63;;;3.10;99.90;;;;;;5038037;28;20255;-79
2021/03/03 07:46:04;;;;;;;42.28;25.42;;;3.10;99.90;;;;;;5038716;28;20635;-82
2021/03/03 07:48:32;;;;;;;45.47;26.98;;;3.10;99.90;;;;;;5040254;28;20257;-81
2021/03/03 07:51:00;;;;;;;47.35;29.17;;;3.30;99.90;;;;;;5040448;28;20208;-82
2021/03/03 07:53:26;;;;;;;46.58;27.27;;;3.30;99.90;;;;;;5040778;28;20728;-81
2021/03/03 07:55:55;;;;;;;46.78;27.77;;;3.30;99.90;;;;;;5047371;28;20724;-81
2021/03/03 07:58:23;;;;;;;48.75;27.27;;;3.00;99.90;;;;;;5045890;28;20219;-81
2021/03/03 08:00:49;;;;;;;44.95;29.35;;;3.20;99.90;;;;;;5040733;28;20275;-81
2021/03/03 08:03:15;;;;;;;49.17;26.90;;;3.20;99.90;;;;;;5038074;28;20220;-81
2021/03/03 08:05:41;;;;;;;50.63;28.98;;;3.20;99.90;;;;;;5037750;28;20622;-81
2021/03/03 08:08:23;;;;;;;49.17;27.92;;;3.40;99.90;;;;;;5036645;28;20211;-81
2021/03/03 08:10:50;;;;;;;43.15;27.80;;;3.20;99.90;;;;;;5037536;28;20192;-81
2021/03/03 08:13:17;;;;;;;51.25;30.63;;;3.00;99.90;;;;;;5036784;28;20317;-82
2021/03/03 08:15:44;;;;;;;43.80;28.38;;;3.10;99.90;;;;;;5041760;28;20345;-79
2021/03/03 08:18:26;;;;;;;50.28;29.10;;;3.20;99.90;;;;;;5041550;28;20227;-80
2021/03/03 08:20:53;;;;;;;48.45;29.77;;;3.30;99.90;;;;;;5041915;28;20184;-80
2021/03/03 08:23:43;;;;;;;49.40;30.73;;;3.40;99.90;;;;;;5042155;28;20323;-81
2021/03/03 08:26:29;;;;;;;51.65;31.05;;;3.60;99.90;;;;;;5040079;28;20214;-80
2021/03/03 08:29:21;;;;;;;49.65;30.40;;;4.00;99.90;;;;;;5043150;28;20212;-80
2021/03/03 08:31:47;;;;;;;46.45;29.25;;;3.90;99.90;;;;;;5042757;28;20212;-80
2021/03/03 08:34:15;;;;;;;50.65;30.65;;;4.00;99.90;;;;;;5042204;28;20227;-80
2021/03/03 08:36:54;;;;;;;49.15;31.45;;;4.00;99.90;;;;;;5042766;28;20220;-81
2021/03/03 08:39:35;;;;;;;41.45;28.08;;;4.10;99.90;;;;;;5042173;28;20234;-80
2021/03/03 08:42:17;;;;;;;45.38;29.75;;;4.70;99.90;;;;;;5042470;28;20587;-81
2021/03/03 08:45:05;;;;;;;51.47;30.75;;;4.60;99.90;;;;;;5038977;28;20214;-80
2021/03/03 08:47:57;;;;;;;48.67;29.08;;;4.50;99.90;;;;;;5041929;28;20191;-81
2021/03/03 08:50:45;;;;;;;48.00;30.50;;;4.60;99.90;;;;;;5046148;28;20194;-81
2021/03/03 08:53:30;;;;;;;45.45;29.05;;;4.80;99.90;;;;;;5041730;28;20219;-81
2021/03/03 08:55:59;;;;;;;49.83;27.77;;;4.90;99.90;;;;;;5042975;28;20187;-80
2021/03/03 08:59:00;;;;;;;41.55;27.80;;;5.00;99.90;;;;;;5047017;28;20250;-81
2021/03/03 09:01:57;;;;;;;45.00;28.60;;;5.10;99.90;;;;;;5048434;28;20188;-78
2021/03/03 09:04:25;;;;;;;47.03;30.42;;;5.20;99.90;;;;;;5045726;28;20305;-82
2021/03/03 09:06:55;;;;;;;47.00;28.92;;;5.20;99.90;;;;;;5042828;28;20199;-80
2021/03/03 09:09:22;;;;;;;48.60;29.23;;;5.20;99.90;;;;;;5040109;28;20523;-81
2021/03/03 09:11:57;;;;;;;43.45;26.80;;;5.30;99.90;;;;;;5038627;28;20199;-79
2021/03/03 09:14:24;;;;;;;48.25;29.25;;;5.40;99.90;;;;;;5038774;28;20227;-81
2021/03/03 09:16:57;;;;;;;42.78;27.83;;;5.60;99.90;;;;;;5037941;28;20281;-80
2021/03/03 09:19:25;;;;;;;44.75;26.85;;;5.70;99.90;;;;;;5037973;28;20222;-81
2021/03/03 09:21:51;;;;;;;49.33;30.98;;;5.70;99.90;;;;;;5036598;28;20257;-80
2021/03/03 09:24:18;;;;;;;47.67;28.35;;;5.90;99.90;;;;;;5074342;22;20231;-79
2021/03/03 09:26:44;;;;;;;53.25;30.90;;;6.00;99.90;;;;;;5056057;28;20192;-79
2021/03/03 09:29:32;;;;;;;51.53;31.00;;;6.10;99.90;;;;;;5055268;28;20226;-78
2021/03/03 09:32:07;;;;;;;50.67;28.77;;;6.20;99.90;;;;;;5052163;28;20234;-80
2021/03/03 09:34:34;;;;;;;43.50;28.70;;;6.30;99.90;;;;;;5044384;28;20319;-80
2021/03/03 09:37:03;;;;;;;41.40;26.40;;;6.30;99.90;;;;;;5042564;28;20257;-80
2021/03/03 09:39:30;;;;;;;51.72;27.52;;;6.40;99.90;;;;;;5054167;28;20196;-76
2021/03/03 09:41:57;;;;;;;44.53;25.30;;;6.50;99.90;;;;;;5047562;28;20639;-78
2021/03/03 09:44:23;;;;;;;45.90;27.50;;;6.60;99.90;;;;;;5045628;28;20231;-77
2021/03/03 09:46:56;;;;;;;39.35;27.50;;;6.80;99.90;;;;;;5043612;28;20184;-78
2021/03/03 09:49:24;;;;;;;42.85;27.20;;;7.00;99.90;;;;;;5052557;28;20222;-79
2021/03/03 09:51:50;;;;;;;42.20;25.85;;;7.20;99.90;;;;;;5053430;28;20203;-79
2021/03/03 09:54:31;;;;;;;43.38;25.77;;;7.10;99.90;;;;;;5048357;28;20281;-78
2021/03/03 09:57:06;;;;;;;51.45;27.60;;;7.20;99.90;;;;;;5045165;28;20220;-77
2021/03/03 09:59:33;;;;;;;45.80;28.45;;;7.20;99.90;;;;;;5045220;28;20207;-78
2021/03/03 10:02:01;;;;;;;41.70;27.42;;;7.20;99.90;;;;;;5043417;28;20211;-79
2021/03/03 10:04:28;;;;;;;49.33;29.63;;;7.20;99.90;;;;;;5038344;28;20227;-79
2021/03/03 10:06:54;;;;;;;43.40;28.33;;;7.20;99.90;;;;;;5038547;28;20282;-78
2021/03/03 10:09:21;;;;;;;45.60;27.73;;;7.20;99.90;;;;;;5038299;28;20204;-79
2021/03/03 10:11:48;;;;;;;42.42;27.27;;;7.20;99.90;;;;;;5038935;28;20625;-80
2021/03/03 10:14:14;;;;;;;41.20;26.55;;;7.20;99.90;;;;;;5048213;28;20608;-77
2021/03/03 10:16:40;;;;;;;38.88;25.50;;;7.30;99.90;;;;;;5053009;28;20202;-79
2021/03/03 10:19:09;;;;;;;42.20;25.15;;;7.30;99.90;;;;;;5043730;28;20199;-79
2021/03/03 10:21:43;;;;;;;39.97;26.23;;;7.30;99.90;;;;;;5039475;28;20200;-79
2021/03/03 10:24:17;;;;;;;47.50;25.42;;;7.40;99.90;;;;;;5038851;28;20269;-78
2021/03/03 10:26:47;;;;;;;40.10;25.60;;;7.40;99.90;;;;;;5047025;28;20230;-79
2021/03/03 10:29:30;;;;;;;41.22;25.42;;;7.50;99.90;;;;;;5050139;28;20210;-78
2021/03/03 10:32:09;;;;;;;34.55;23.52;;;7.50;99.90;;;;;;5047314;28;20196;-79
2021/03/03 10:34:36;;;;;;;36.20;24.08;;;7.50;99.90;;;;;;5038064;28;20223;-79
2021/03/03 10:37:02;;;;;;;43.92;23.92;;;7.70;99.90;;;;;;5041147;28;20226;-78
2021/03/03 10:39:29;;;;;;;38.85;24.27;;;7.70;99.90;;;;;;5048675;28;20214;-78
2021/03/03 10:42:00;;;;;;;44.72;24.13;;;7.80;99.90;;;;;;5046825;28;20211;-80
2021/03/03 10:44:38;;;;;;;39.72;24.35;;;7.90;99.90;;;;;;5049252;28;20220;-79
2021/03/03 10:47:04;;;;;;;35.85;22.67;;;8.10;99.90;;;;;;5052778;28;20190;-79
2021/03/03 10:49:30;;;;;;;42.88;26.80;;;8.10;99.90;;;;;;5053902;28;20206;-78
2021/03/03 10:51:57;;;;;;;37.15;25.35;;;8.10;99.90;;;;;;5052388;28;20577;-76
2021/03/03 10:54:30;;;;;;;39.60;24.60;;;8.20;99.90;;;;;;5055986;28;20231;-79
2021/03/03 10:57:04;;;;;;;37.00;23.80;;;8.30;99.90;;;;;;5057655;28;20203;-80
2021/03/03 10:59:31;;;;;;;42.80;25.47;;;8.30;99.90;;;;;;5056243;28;20500;-78
2021/03/03 11:01:59;;;;;;;41.87;25.93;;;8.40;99.90;;;;;;5056155;28;20446;-78
2021/03/03 11:04:37;;;;;;;37.23;25.67;;;8.50;99.90;;;;;;5055487;28;20516;-78
2021/03/03 11:07:06;;;;;;;42.90;24.80;;;8.60;99.90;;;;;;5057444;28;20433;-77
2021/03/03 11:09:32;;;;;;;42.50;25.00;;;8.70;99.90;;;;;;5055751;28;20446;-77
2021/03/03 11:11:59;;;;;;;39.80;25.13;;;8.70;99.90;;;;;;5053033;28;20453;-77
2021/03/03 11:14:27;;;;;;;40.47;28.10;;;8.80;99.90;;;;;;5053784;28;20520;-79
2021/03/03 11:16:53;;;;;;;42.10;25.63;;;8.80;99.90;;;;;;5055446;28;20457;-76
2021/03/03 11:19:21;;;;;;;43.60;26.77;;;8.90;99.90;;;;;;5055819;28;20442;-78
2021/03/03 11:21:47;;;;;;;39.70;25.90;;;8.90;99.90;;;;;;5055715;28;20446;-79
2021/03/03 11:24:15;;;;;;;44.33;27.50;;;9.00;99.90;;;;;;5057717;28;20477;-78
2021/03/03 11:26:43;;;;;;;45.37;27.20;;;9.00;99.90;;;;;;5058775;28;20450;-78
2021/03/03 11:29:10;;;;;;;46.33;27.33;;;9.10;99.90;;;;;;5060536;28;20519;-79
2021/03/03 11:31:36;;;;;;;44.77;26.63;;;9.30;99.90;;;;;;5058555;28;20446;-78
2021/03/03 11:34:03;;;;;;;37.20;25.13;;;9.30;99.90;;;;;;5055517;28;20476;-77
2021/03/03 11:36:29;;;;;;;43.47;27.53;;;9.40;99.90;;;;;;5054732;28;20416;-77
2021/03/03 11:38:56;;;;;;;39.57;26.10;;;9.50;99.90;;;;;;5055365;28;20443;-77
2021/03/03 11:41:23;;;;;;;52.93;29.47;;;9.70;99.90;;;;;;5056394;28;20447;-77
2021/03/03 11:43:50;;;;;;;39.03;25.80;;;9.70;99.90;;;;;;5054680;28;20609;-78
2021/03/03 11:46:16;;;;;;;44.57;28.90;;;9.70;99.90;;;;;;5049921;28;20437;-78
2021/03/03 11:48:42;;;;;;;41.50;25.83;;;9.70;99.90;;;;;;5052006;28;20454;-78
2021/03/03 11:51:09;;;;;;;42.73;26.80;;;9.80;99.90;;;;;;5053731;28;20439;-79
2021/03/03 11:53:35;;;;;;;41.57;27.97;;;9.90;99.90;;;;;;5048733;28;20790;-79
2021/03/03 11:56:01;;;;;;;45.13;27.63;;;9.90;99.90;;;;;;5041020;28;20845;-79
2021/03/03 11:58:28;;;;;;;39.07;27.47;;;10.00;99.90;;;;;;5039916;28;20478;-79
2021/03/03 12:00:54;;;;;;;38.87;25.47;;;10.00;99.90;;;;;;5040320;28;20453;-79
2021/03/03 12:03:20;;;;;;;33.80;24.90;;;10.10;99.90;;;;;;5050071;28;20536;-78
2021/03/03 12:05:46;;;;;;;39.00;23.87;;;10.20;99.90;;;;;;5053107;28;20450;-78
2021/03/03 12:08:12;;;;;;;36.90;24.80;;;10.20;99.90;;;;;;5059844;28;20449;-78
2021/03/03 12:10:39;;;;;;;38.53;25.90;;;10.50;99.90;;;;;;5056562;28;20421;-79
2021/03/03 12:13:05;;;;;;;40.50;25.47;;;10.40;99.90;;;;;;5039812;28;20473;-79
2021/03/03 12:15:32;;;;;;;42.00;26.10;;;10.50;99.90;;;;;;5039806;28;20474;-79
2021/03/03 12:17:59;;;;;;;36.17;24.60;;;10.60;99.90;;;;;;5039430;28;20474;-80
2021/03/03 12:20:27;;;;;;;39.60;24.17;;;10.70;99.90;;;;;;5039895;28;20457;-78
2021/03/03 12:22:54;;;;;;;44.70;26.80;;;10.70;99.90;;;;;;5039344;28;21132;-78
2021/03/03 12:25:20;;;;;;;40.40;24.53;;;10.80;99.90;;;;;;5045028;28;20446;-78
2021/03/03 12:27:46;;;;;;;38.50;25.00;;;11.20;99.90;;;;;;5056378;28;20442;-79
2021/03/03 12:30:13;;;;;;;41.37;24.17;;;10.90;99.90;;;;;;5043436;28;20446;-78
2021/03/03 12:32:40;;;;;;;34.20;22.10;;;10.90;99.90;;;;;;5043311;28;20458;-78
2021/03/03 12:35:07;;;;;;;38.97;23.80;;;11.00;99.90;;;;;;5045711;28;20451;-79
2021/03/03 12:37:33;;;;;;;41.77;23.93;;;11.10;99.90;;;;;;5055836;28;20482;-79
2021/03/03 12:39:59;;;;;;;33.73;23.17;;;11.10;99.90;;;;;;5043807;28;20425;-79
2021/03/03 12:42:26;;;;;;;40.30;23.57;;;11.10;99.90;;;;;;5040560;28;20477;-78